Time;durP1;ratioP1;P1;durP2;ratioP2;P2;SDS_P1;SDS_P2;PMS_P1;PMS_P2;Temp;Humidity;BMP_temperature;BMP_pressure;BME280_temperature;BME280_humidity;BME280_pressure;Samples;Min_cycle;Max_cycle;Signal;HPM_P1;HPM_P2
2022/04/21 00:01:00;;;;;;;48.80;32.40;;;;;;;5.57;83.78;98490.66;2183044;81;21316;-84
2022/04/21 00:04:00;;;;;;;51.63;34.00;;;;;;;5.59;84.03;98479.92;2182378;81;21044;-84
2022/04/21 00:07:03;;;;;;;50.03;34.20;;;;;;;5.58;83.74;98474.29;2183083;81;20920;-85
2022/04/21 00:10:04;;;;;;;45.00;33.10;;;;;;;5.60;83.78;98474.78;2182897;82;20933;-85
2022/04/21 00:13:05;;;;;;;47.33;33.40;;;;;;;5.60;83.75;98470.02;2182805;81;20956;-84
2022/04/21 00:16:05;;;;;;;48.90;34.67;;;;;;;5.60;83.87;98475.20;2182802;81;20885;-85
2022/04/21 00:19:08;;;;;;;50.80;35.03;;;;;;;5.58;83.81;98468.69;2183270;81;20944;-85
2022/04/21 00:25:27;;;;;;;52.33;34.73;;;;;;;5.55;84.03;98471.63;2183517;82;20912;-85
2022/04/21 00:28:31;;;;;;;49.93;34.03;;;;;;;5.55;84.21;98476.38;2183424;81;20945;-86
2022/04/21 00:31:33;;;;;;;56.53;38.07;;;;;;;5.54;84.37;98470.75;2183418;81;20968;-86
2022/04/21 00:34:33;;;;;;;55.87;37.33;;;;;;;5.54;84.24;98472.45;2155909;82;20921;-85
2022/04/21 00:37:36;;;;;;;54.47;37.53;;;;;;;5.57;84.24;98469.53;2142009;83;20984;-85
2022/04/21 00:40:36;;;;;;;52.33;35.60;;;;;;;5.59;84.23;98463.97;2175592;82;20924;-85
2022/04/21 00:43:37;;;;;;;51.97;34.87;;;;;;;5.63;84.24;98467.09;2182990;81;20988;-85
2022/04/21 00:46:37;;;;;;;56.17;34.93;;;;;;;5.62;84.24;98466.64;2183126;81;20921;-84
2022/04/21 00:49:38;;;;;;;53.37;35.20;;;;;;;5.60;84.16;98466.14;2182894;81;20969;-84
2022/04/21 00:52:38;;;;;;;48.93;34.43;;;;;;;5.60;84.19;98470.02;2182771;81;20889;-84
2022/04/21 00:55:38;;;;;;;49.77;35.23;;;;;;;5.61;84.41;98472.66;2182688;81;20897;-85
2022/04/21 00:58:39;;;;;;;51.03;33.50;;;;;;;5.59;84.26;98469.15;2179548;82;20986;-87
2022/04/21 01:04:59;;;;;;;46.33;31.70;;;;;;;5.62;84.37;98467.05;2166300;82;20905;-85
2022/04/21 01:07:59;;;;;;;50.63;28.80;;;;;;;5.59;84.32;98466.56;2165933;82;20909;-83
2022/04/21 01:10:59;;;;;;;45.07;29.70;;;;;;;6.30;91.33;98463.58;2166206;82;20929;-84
2022/04/21 01:13:59;;;;;;;48.13;32.20;;;;;;;7.84;88.53;98457.56;2166024;82;21294;-85
2022/04/21 01:17:00;;;;;;;38.07;25.60;;;;;;;7.95;80.71;98452.53;2166491;82;20981;-84
2022/04/21 01:20:00;;;;;;;42.53;30.70;;;;;;;7.47;83.31;98457.75;2166304;82;20893;-84
2022/04/21 01:23:01;;;;;;;42.73;29.77;;;;;;;8.35;81.12;98459.24;2165840;82;21325;-86
2022/04/21 01:26:01;;;;;;;44.50;31.17;;;;;;;7.82;77.79;98464.88;2166284;82;20906;-84
2022/04/21 01:29:02;;;;;;;42.37;29.03;;;;;;;7.24;78.19;98459.92;2166201;82;20985;-84
2022/04/21 01:32:02;;;;;;;41.37;29.43;;;;;;;6.83;79.10;98469.47;2165707;82;21420;-84
2022/04/21 01:35:02;;;;;;;46.80;31.90;;;;;;;6.53;79.79;98470.98;2165890;82;20921;-85
2022/04/21 01:41:21;;;;;;;46.40;32.50;;;;;;;6.16;80.90;98468.00;2165878;82;20920;-84
2022/04/21 01:44:22;;;;;;;48.10;32.80;;;;;;;6.05;81.33;98465.12;2166295;82;20937;-84
2022/04/21 01:47:22;;;;;;;45.83;31.20;;;;;;;5.96;81.58;98461.89;2166228;82;21293;-85
2022/04/21 01:50:23;;;;;;;47.00;31.80;;;;;;;5.91;82.08;98467.38;2166289;82;20913;-83
2022/04/21 01:53:23;;;;;;;45.87;31.47;;;;;;;5.91;82.14;98471.27;2166185;82;20897;-84
2022/04/21 01:56:25;;;;;;;48.70;33.10;;;;;;;5.89;82.32;98466.47;2145469;82;20921;-85
2022/04/21 01:59:26;;;;;;;32.13;16.77;;;;;;;5.89;82.43;98460.38;2165853;82;20957;-84
2022/04/21 02:02:26;;;;;;;28.27;16.23;;;;;;;7.18;93.65;98454.62;2165550;82;21357;-85
2022/04/21 02:05:26;;;;;;;29.40;17.23;;;;;;;10.63;87.54;98436.41;2165764;82;20913;-80
2022/04/21 02:08:27;;;;;;;40.20;27.93;;;;;;;12.38;80.85;98436.34;2165889;82;20902;-84
2022/04/21 02:11:30;;;;;;;46.50;30.03;;;;;;;13.95;71.16;98439.59;2165713;82;20949;-82
2022/04/21 02:14:31;;;;;;;35.97;27.17;;;;;;;12.16;66.17;98442.48;2165786;82;20922;-85
2022/04/21 02:17:32;;;;;;;32.17;23.27;;;;;;;10.95;69.47;98453.53;2165719;82;21168;-84
2022/04/21 02:20:31;;;;;;;40.60;25.57;;;;;;;11.07;73.76;98445.73;2165527;82;20945;-82
2022/04/21 02:23:32;;;;;;;46.90;25.13;;;;;;;12.84;71.31;98430.11;2165744;82;20877;-79
2022/04/21 02:26:32;;;;;;;39.73;29.93;;;;;;;13.84;67.93;98429.59;2165550;82;20961;-80
2022/04/21 02:29:32;;;;;;;40.43;29.50;;;;;;;12.86;62.71;98433.59;2165599;82;20889;-79
2022/04/21 02:32:33;;;;;;;37.20;29.50;;;;;;;11.34;63.28;98445.85;2166267;82;20937;-80
2022/04/21 02:35:33;;;;;;;25.13;16.40;;;;;;;10.17;64.78;98443.89;2166448;82;20921;-81
2022/04/21 02:38:34;;;;;;;31.27;19.30;;;;;;;10.07;73.33;98440.35;2165931;82;21008;-82
2022/04/21 02:41:34;;;;;;;28.30;20.40;;;;;;;12.55;68.48;98428.45;2165301;82;20928;-81
2022/04/21 02:44:34;;;;;;;28.23;20.50;;;;;;;13.67;66.00;98426.22;2165438;82;20937;-82
2022/04/21 02:47:35;;;;;;;32.45;26.05;;;;;;;14.37;63.44;98427.41;2165459;82;20952;-83
2022/04/21 02:50:35;;;;;;;28.00;19.80;;;;;;;15.04;60.58;98421.00;2165553;82;20920;-83
2022/04/21 02:59:58;;;;;;;34.13;26.68;;;;;;;15.28;54.49;98416.73;2165624;82;21012;-85
2022/04/21 03:02:58;;;;;;;34.00;23.40;;;;;;;12.99;55.39;98413.02;2165672;82;20999;-86
2022/04/21 03:06:01;;;;;;;30.82;22.87;;;;;;;12.72;60.65;98416.18;2166041;82;20961;-84
2022/04/21 03:09:01;;;;;;;26.65;19.45;;;;;;;13.81;59.87;98416.49;2165799;82;20937;-81
2022/04/21 03:12:02;;;;;;;38.92;28.67;;;;;;;14.31;58.75;98419.14;2166307;82;20914;-85
2022/04/21 03:15:02;;;;;;;37.35;28.05;;;;;;;13.75;55.52;98424.41;2166654;82;21271;-87
2022/04/21 03:18:02;;;;;;;40.03;29.70;;;;;;;11.97;56.53;98422.41;2167047;82;20972;-86
2022/04/21 03:24:22;;;;;;;44.50;30.87;;;;;;;9.37;61.71;98422.77;2166823;82;20913;-86
2022/04/21 03:27:22;;;;;;;41.17;28.67;;;;;;;8.52;64.74;98428.27;2166655;82;21301;-84
2022/04/21 03:30:22;;;;;;;42.97;27.10;;;;;;;7.99;67.66;98421.42;2166350;82;20905;-84
2022/04/21 03:33:24;;;;;;;44.40;30.70;;;;;;;9.46;69.76;98425.47;2165911;82;21019;-84
2022/04/21 03:36:23;;;;;;;52.43;35.60;;;;;;;10.76;65.77;98416.89;2166457;82;20957;-84
2022/04/21 03:39:24;;;;;;;49.70;34.30;;;;;;;10.70;63.00;98419.91;2166113;82;21060;-85
2022/04/21 03:42:24;;;;;;;46.00;33.77;;;;;;;10.29;63.58;98432.27;2166173;82;21394;-82
2022/04/21 03:45:24;;;;;;;46.50;32.60;;;;;;;10.35;64.66;98436.22;2164873;82;20946;-83
2022/04/21 03:48:25;;;;;;;43.20;32.20;;;;;;;9.85;64.70;98435.83;2165200;82;20890;-83
2022/04/21 03:51:27;;;;;;;41.67;28.90;;;;;;;10.29;65.29;98442.70;2164670;82;20973;-83
2022/04/21 03:54:26;;;;;;;44.13;30.37;;;;;;;10.16;64.87;98449.97;2165103;82;20973;-84
2022/04/21 03:57:27;;;;;;;42.20;29.27;;;;;;;11.14;65.49;98440.97;2166069;82;20937;-83
2022/04/21 04:00:26;;;;;;;48.97;32.60;;;;;;;12.08;63.21;98435.05;2165303;82;21029;-83
2022/04/21 04:03:27;;;;;;;44.80;31.57;;;;;;;12.78;61.26;98424.89;2166121;82;20952;-84
2022/04/21 04:13:05;;;;;;;48.97;34.87;;;;;;;11.39;57.30;98437.59;2165965;82;20929;-82
2022/04/21 04:16:07;;;;;;;49.10;33.37;;;;;;;9.70;60.05;98435.70;2165284;82;20924;-84
2022/04/21 04:19:10;;;;;;;46.13;33.77;;;;;;;8.69;62.94;98433.72;2165517;82;20984;-83
2022/04/21 04:22:08;;;;;;;59.83;36.80;;;;;;;7.96;65.57;98434.80;2144302;82;20921;-85
2022/04/21 04:25:09;;;;;;;53.23;37.37;;;;;;;7.41;67.00;98440.77;2165100;82;20929;-84
2022/04/21 04:28:09;;;;;;;56.63;38.33;;;;;;;7.00;69.12;98443.47;2165222;82;20962;-84
2022/04/21 04:31:10;;;;;;;55.53;37.70;;;;;;;6.67;70.47;98444.92;2164555;82;20920;-83
2022/04/21 04:34:10;;;;;;;59.37;38.67;;;;;;;6.47;70.89;98446.23;2164053;82;21000;-82
2022/04/21 04:37:10;;;;;;;58.70;39.00;;;;;;;6.51;72.59;98442.43;2164675;82;20940;-84
2022/04/21 04:40:11;;;;;;;58.53;38.23;;;;;;;6.66;73.94;98443.17;2165608;82;20973;-84
2022/04/21 04:43:11;;;;;;;67.73;37.17;;;;;;;7.49;75.39;98440.05;2165285;82;20929;-85
2022/04/21 04:49:31;;;;;;;51.47;36.20;;;;;;;8.17;71.09;98440.74;2164940;82;20933;-82
2022/04/21 04:52:31;;;;;;;63.37;38.43;;;;;;;7.89;70.40;98452.44;2166378;82;21102;-83
2022/04/21 04:55:31;;;;;;;54.27;37.17;;;;;;;8.36;70.98;98452.31;2165463;82;20929;-82
2022/04/21 04:58:32;;;;;;;56.83;38.40;;;;;;;7.85;69.83;98450.64;2165264;82;21284;-82
2022/04/21 05:01:32;;;;;;;59.53;37.73;;;;;;;7.37;70.49;98449.34;2172638;82;21000;-82
2022/04/21 05:04:33;;;;;;;57.87;39.63;;;;;;;7.09;71.88;98451.84;2174866;82;20995;-82
2022/04/21 05:07:34;;;;;;;55.70;38.10;;;;;;;6.81;72.70;98447.80;2175371;82;20939;-82
2022/04/21 05:10:34;;;;;;;68.27;42.37;;;;;;;6.58;73.67;98452.09;2174969;82;20924;-84
2022/04/21 05:13:34;;;;;;;64.23;42.43;;;;;;;6.46;74.08;98454.42;2175246;82;21315;-83
2022/04/21 05:16:36;;;;;;;67.80;42.40;;;;;;;6.36;75.05;98448.16;2174633;82;20969;-81
2022/04/21 05:19:34;;;;;;;66.73;43.33;;;;;;;6.30;75.65;98445.86;2175015;82;20929;-85
2022/04/21 05:22:37;;;;;;;58.07;38.93;;;;;;;6.26;75.95;98441.02;2174403;82;20944;-80
2022/04/21 05:25:40;;;;;;;65.20;41.47;;;;;;;6.24;76.02;98449.19;2173756;82;20964;-84
2022/04/21 05:28:36;;;;;;;69.50;42.10;;;;;;;6.23;77.27;98448.73;2173771;82;20980;-82
2022/04/21 05:31:36;;;;;;;69.93;45.27;;;;;;;6.22;76.82;98454.76;2174026;82;21300;-81
2022/04/21 05:34:36;;;;;;;69.53;42.63;;;;;;;6.25;77.28;98444.88;2173444;82;21028;-84
2022/04/21 05:37:37;;;;;;;70.57;42.10;;;;;;;6.33;78.08;98450.69;2173755;82;20945;-83
2022/04/21 05:40:37;;;;;;;64.70;42.30;;;;;;;6.28;77.57;98441.94;2174099;82;20980;-80
2022/04/21 05:43:42;;;;;;;63.93;40.77;;;;;;;6.31;78.21;98443.72;2173774;82;20912;-83
2022/04/21 05:46:41;;;;;;;60.40;39.73;;;;;;;6.34;77.50;98442.07;2173621;82;21398;-82
2022/04/21 05:49:41;;;;;;;60.93;39.90;;;;;;;6.42;77.85;98438.77;2173704;82;20968;-82
2022/04/21 05:52:42;;;;;;;58.17;38.87;;;;;;;6.49;77.53;98435.47;2173160;82;20941;-81
2022/04/21 05:55:42;;;;;;;58.40;36.33;;;;;;;6.53;77.32;98438.16;2173610;82;21380;-80
2022/04/21 05:58:43;;;;;;;59.77;39.47;;;;;;;6.55;77.67;98435.59;2174264;82;20988;-80
2022/04/21 06:01:43;;;;;;;64.03;40.20;;;;;;;6.59;77.70;98438.70;2165954;82;21284;-83
2022/04/21 06:04:43;;;;;;;56.93;37.43;;;;;;;6.66;77.49;98439.28;2164035;82;21015;-83
2022/04/21 06:07:44;;;;;;;56.60;38.23;;;;;;;6.64;77.35;98440.55;2164513;82;20923;-84
2022/04/21 06:10:44;;;;;;;60.90;38.83;;;;;;;6.65;77.44;98441.42;2164959;82;21353;-81
2022/04/21 06:13:45;;;;;;;51.73;35.33;;;;;;;6.67;77.51;98443.20;2164921;82;20933;-82
2022/04/21 06:16:45;;;;;;;52.33;34.93;;;;;;;6.63;77.67;98440.09;2164523;82;21364;-84
2022/04/21 06:19:45;;;;;;;58.60;36.60;;;;;;;6.57;78.30;98440.39;2164225;82;20928;-82
2022/04/21 06:22:46;;;;;;;52.17;31.63;;;;;;;6.57;77.98;98437.80;2164591;82;20929;-83
2022/04/21 06:25:46;;;;;;;53.40;34.83;;;;;;;6.60;78.37;98437.86;2164349;82;21329;-84
2022/04/21 06:28:49;;;;;;;53.30;35.03;;;;;;;6.68;78.17;98432.41;2143645;82;21571;-83
2022/04/21 06:31:49;;;;;;;55.13;37.67;;;;;;;6.72;78.21;98440.71;2165333;82;20878;-84
2022/04/21 06:34:49;;;;;;;58.57;37.47;;;;;;;6.63;78.28;98447.88;2165502;82;21020;-83
2022/04/21 06:37:50;;;;;;;55.40;34.77;;;;;;;6.64;78.82;98448.75;2164350;82;20996;-82
2022/04/21 06:40:50;;;;;;;47.00;33.30;;;;;;;6.63;78.50;98443.98;2165155;82;21281;-82
2022/04/21 06:50:28;;;;;;;46.37;31.50;;;;;;;6.84;78.39;98443.55;2164127;82;21340;-82
2022/04/21 06:53:30;;;;;;;42.43;30.47;;;;;;;7.12;77.95;98438.93;2163772;82;20933;-81
2022/04/21 06:56:29;;;;;;;42.37;30.33;;;;;;;7.35;77.55;98435.91;2164395;82;20921;-83
2022/04/21 06:59:29;;;;;;;44.43;30.97;;;;;;;7.50;77.18;98439.63;2163153;82;20917;-81
2022/04/21 07:02:32;;;;;;;37.73;28.33;;;;;;;7.70;76.77;98436.94;2171662;82;20991;-84
2022/04/21 07:05:34;;;;;;;37.45;28.83;;;;;;;7.77;76.12;98445.28;2174012;82;20995;-82
2022/04/21 07:08:34;;;;;;;35.70;25.87;;;;;;;7.81;76.09;98448.84;2174123;82;20901;-82
2022/04/21 07:11:35;;;;;;;34.80;26.47;;;;;;;7.93;75.66;98444.72;2173316;82;20968;-84
2022/04/21 07:14:35;;;;;;;34.97;26.40;;;;;;;7.91;75.62;98453.34;2173859;82;20933;-81
2022/04/21 07:17:36;;;;;;;35.17;27.17;;;;;;;7.95;75.42;98452.11;2173322;82;21351;-83
2022/04/21 07:20:36;;;;;;;32.40;26.07;;;;;;;8.00;75.65;98459.98;2174100;82;20977;-83
2022/04/21 07:23:37;;;;;;;37.60;27.63;;;;;;;7.99;75.36;98460.83;2174683;82;20924;-84
2022/04/21 07:26:38;;;;;;;33.00;25.63;;;;;;;7.99;75.37;98455.63;2173847;82;21372;-83
2022/04/21 07:29:37;;;;;;;34.70;26.63;;;;;;;8.07;75.52;98456.63;2173961;82;20936;-84
2022/04/21 07:32:37;;;;;;;32.93;25.93;;;;;;;8.12;75.26;98456.70;2173778;82;20981;-83
2022/04/21 07:35:39;;;;;;;36.20;26.47;;;;;;;8.16;75.06;98463.69;2173239;82;20992;-82
2022/04/21 07:38:38;;;;;;;38.03;26.73;;;;;;;8.18;75.09;98462.86;2173674;82;21277;-84
2022/04/21 07:41:39;;;;;;;33.37;25.47;;;;;;;8.07;74.96;98468.32;2174699;82;20965;-84
2022/04/21 07:44:39;;;;;;;31.87;24.40;;;;;;;8.06;75.38;98471.77;2174551;82;20936;-85
2022/04/21 07:47:40;;;;;;;31.53;23.63;;;;;;;8.07;74.99;98473.95;2174563;82;20913;-84
2022/04/21 07:50:42;;;;;;;29.33;23.73;;;;;;;8.06;75.23;98477.40;2144670;82;21297;-83
2022/04/21 07:53:42;;;;;;;33.43;26.17;;;;;;;7.99;75.19;98485.52;2174591;82;20917;-84
2022/04/21 07:56:43;;;;;;;30.90;24.37;;;;;;;8.01;75.59;98481.22;2175249;82;20973;-85
2022/04/21 07:59:44;;;;;;;29.30;22.63;;;;;;;8.15;75.47;98474.94;2173853;82;21342;-83
2022/04/21 08:02:43;;;;;;;29.53;23.97;;;;;;;8.22;75.13;98474.19;2165883;82;21048;-84
2022/04/21 08:05:45;;;;;;;31.77;24.33;;;;;;;8.18;75.20;98471.96;2164236;82;20992;-82
2022/04/21 08:08:44;;;;;;;31.87;24.37;;;;;;;8.17;75.33;98472.81;2164206;82;20978;-83
2022/04/21 08:11:45;;;;;;;32.27;23.93;;;;;;;8.19;75.37;98474.14;2164311;82;20941;-84
2022/04/21 08:14:45;;;;;;;30.77;23.27;;;;;;;8.21;75.32;98477.20;2165172;82;20893;-85
2022/04/21 08:17:55;;;;;;;30.20;23.30;;;;;;;8.19;75.26;98476.31;2165307;82;20952;-87
2022/04/21 08:34:02;;;;;;;30.27;24.97;;;;;;;8.16;75.58;98471.49;2165678;82;21004;-86
2022/04/21 08:37:02;;;;;;;32.00;24.23;;;;;;;8.11;75.47;98474.02;2165044;82;20968;-81
2022/04/21 08:40:03;;;;;;;33.47;23.73;;;;;;;8.20;75.76;98473.28;2165201;82;21396;-84
2022/04/21 08:43:03;;;;;;;37.67;25.80;;;;;;;8.27;75.40;98472.53;2164765;82;20936;-82
2022/04/21 08:46:04;;;;;;;38.90;26.87;;;;;;;8.33;75.34;98470.44;2165274;82;20965;-84
2022/04/21 08:52:07;;;;;;;34.23;25.87;;;;;;;8.47;75.04;98466.34;2138429;83;21328;-85
2022/04/21 08:55:07;;;;;;;34.27;24.90;;;;;;;8.59;74.71;98458.71;2137664;83;20994;-84
2022/04/21 08:58:08;;;;;;;31.43;24.20;;;;;;;8.75;74.50;98459.82;2138159;83;21046;-84
2022/04/21 09:01:08;;;;;;;36.00;27.20;;;;;;;8.78;74.11;98467.66;2139056;82;21406;-84
2022/04/21 09:04:09;;;;;;;34.40;25.70;;;;;;;8.76;74.12;98458.54;2139887;83;20983;-85
2022/04/21 09:07:09;;;;;;;31.83;23.83;;;;;;;8.83;74.12;98469.90;2139023;83;20971;-81
2022/04/21 09:10:14;;;;;;;33.73;24.70;;;;;;;8.76;74.02;98472.85;2139484;83;21378;-84
2022/04/21 09:13:17;;;;;;;26.20;21.43;;;;;;;8.60;74.55;98470.86;2115002;83;21001;-84
2022/04/21 09:16:21;;;;;;;30.23;22.30;;;;;;;8.58;74.93;98476.47;2140963;83;20986;-84
2022/04/21 09:19:18;;;;;;;27.93;22.63;;;;;;;8.55;74.85;98480.33;2139995;83;21386;-85
2022/04/21 09:22:19;;;;;;;30.83;23.17;;;;;;;8.56;75.16;98478.18;2140113;83;20959;-84
2022/04/21 09:25:22;;;;;;;30.77;24.57;;;;;;;8.52;75.67;98473.36;2140316;83;20919;-85
2022/04/21 09:28:25;;;;;;;29.57;22.27;;;;;;;8.57;75.66;98470.82;2139680;83;20989;-86
2022/04/21 09:31:29;;;;;;;28.73;22.50;;;;;;;8.65;75.52;98473.10;2114525;83;20943;-84
2022/04/21 09:34:28;;;;;;;23.73;20.60;;;;;;;8.75;76.07;98469.80;2137480;83;20966;-81
2022/04/21 09:37:31;;;;;;;27.90;22.97;;;;;;;8.83;76.02;98472.50;2139543;83;20987;-84
2022/04/21 09:40:32;;;;;;;29.93;21.80;;;;;;;8.93;76.18;98463.52;2139190;83;21231;-85
2022/04/21 09:43:37;;;;;;;25.33;21.80;;;;;;;8.96;75.17;98466.59;2139247;83;21164;-86
2022/04/21 09:46:32;;;;;;;28.80;22.70;;;;;;;9.04;75.46;98467.98;2139158;83;20939;-84
2022/04/21 09:49:44;;;;;;;24.50;20.37;;;;;;;9.16;75.59;98470.30;2129334;83;21001;-86
2022/04/21 09:52:44;;;;;;;28.40;21.47;;;;;;;9.18;75.00;98474.22;2169867;82;20948;-83
2022/04/21 09:55:44;;;;;;;26.50;20.17;;;;;;;9.18;75.18;98467.72;2175118;82;20889;-85
2022/04/21 09:58:45;;;;;;;26.90;21.37;;;;;;;9.34;74.64;98464.42;2175565;82;20999;-83
2022/04/21 10:01:46;;;;;;;24.27;21.07;;;;;;;9.45;74.58;98465.41;2171496;82;20980;-83
2022/04/21 10:04:52;;;;;;;24.17;21.00;;;;;;;9.53;74.40;98458.97;2164008;82;20975;-85
2022/04/21 10:07:52;;;;;;;23.43;18.13;;;;;;;9.55;74.51;98465.97;2144059;82;21383;-84
2022/04/21 10:10:55;;;;;;;21.30;18.93;;;;;;;9.50;73.80;98466.33;2164325;82;20886;-83
2022/04/21 10:13:58;;;;;;;23.93;20.13;;;;;;;9.47;74.62;98464.99;2164745;82;20933;-85
2022/04/21 10:17:02;;;;;;;24.13;20.67;;;;;;;9.58;75.33;98472.52;2164730;82;20933;-84
2022/04/21 10:23:08;;;;;;;20.55;18.25;;;;;;;9.69;73.84;98474.35;2138296;83;20946;-84
2022/04/21 10:26:09;;;;;;;24.63;19.03;;;;;;;9.56;74.58;98472.93;2138308;83;20951;-83
2022/04/21 10:29:09;;;;;;;28.83;23.40;;;;;;;9.56;74.44;98467.72;2138683;83;20979;-86
2022/04/21 10:32:10;;;;;;;27.63;21.30;;;;;;;9.63;74.82;98467.78;2139203;83;21018;-83
2022/04/21 10:35:10;;;;;;;25.63;22.17;;;;;;;9.60;74.79;98469.05;2138857;83;21018;-83
2022/04/21 10:38:10;;;;;;;30.23;23.23;;;;;;;9.58;74.93;98467.73;2138461;83;21042;-82
2022/04/21 10:41:11;;;;;;;24.43;19.03;;;;;;;9.56;75.12;98466.84;2138170;83;20951;-81
2022/04/21 10:44:14;;;;;;;26.70;21.53;;;;;;;9.51;75.40;98465.89;2138537;83;21282;-84
2022/04/21 10:47:14;;;;;;;25.33;20.80;;;;;;;9.46;75.33;98471.48;2138242;83;20931;-84
2022/04/21 10:50:15;;;;;;;26.47;21.07;;;;;;;9.41;75.77;98472.75;2138518;83;20946;-84
2022/04/21 10:59:54;;;;;;;26.20;21.70;;;;;;;9.23;75.85;98475.16;2138621;83;20946;-85
2022/04/21 11:02:55;;;;;;;25.30;20.77;;;;;;;9.13;76.59;98479.81;2139307;83;21022;-79
2022/04/21 11:05:55;;;;;;;24.63;20.30;;;;;;;9.08;76.59;98477.58;2138808;83;21037;-83
2022/04/21 11:08:56;;;;;;;23.13;20.63;;;;;;;9.09;77.05;98483.23;2138696;83;20978;-82
2022/04/21 11:11:57;;;;;;;24.77;21.60;;;;;;;9.06;77.78;98477.98;2139217;83;21029;-84
2022/04/21 11:14:56;;;;;;;24.90;20.23;;;;;;;9.02;78.54;98481.41;2138665;83;21009;-81
2022/04/21 11:17:57;;;;;;;19.70;17.03;;;;;;;8.92;78.36;98489.11;2139367;83;21022;-85
2022/04/21 11:20:57;;;;;;;25.50;19.23;;;;;;;8.89;78.53;98484.30;2173309;82;21642;-82
2022/04/21 11:23:58;;;;;;;28.10;21.20;;;;;;;8.97;78.75;98483.09;2173619;82;20929;-84
2022/04/21 11:26:58;;;;;;;27.73;23.37;;;;;;;9.07;78.61;98487.13;2174474;82;20920;-83
2022/04/21 11:29:59;;;;;;;26.57;22.13;;;;;;;9.10;79.31;98483.68;2174341;82;21411;-83
2022/04/21 11:32:59;;;;;;;27.77;22.40;;;;;;;9.14;79.40;98481.56;2174312;82;20944;-82
2022/04/21 11:35:59;;;;;;;26.03;21.90;;;;;;;9.26;79.24;98474.76;2173589;82;20976;-81
2022/04/21 11:39:00;;;;;;;25.70;21.23;;;;;;;9.46;78.93;98465.85;2173004;82;20987;-82
2022/04/21 11:42:00;;;;;;;22.03;19.57;;;;;;;9.47;78.32;98470.63;2173272;82;20940;-82
2022/04/21 11:45:01;;;;;;;21.60;18.97;;;;;;;9.37;78.97;98474.88;2173795;82;20901;-84
2022/04/21 11:48:02;;;;;;;23.17;20.70;;;;;;;9.36;79.04;98471.82;2173985;82;21356;-84
2022/04/21 11:51:02;;;;;;;22.87;19.10;;;;;;;9.49;78.99;98470.22;2174930;82;20928;-85
2022/04/21 11:54:02;;;;;;;22.30;18.87;;;;;;;9.55;78.82;98473.79;2175685;82;20940;-81
2022/04/21 11:57:02;;;;;;;22.10;19.70;;;;;;;9.55;78.20;98471.19;2174587;82;20925;-84
2022/04/21 12:00:03;;;;;;;27.67;21.53;;;;;;;9.55;78.82;98468.58;2174400;82;20920;-84
2022/04/21 12:06:28;;;;;;;23.83;20.50;;;;;;;9.76;78.38;98470.52;2163186;82;20982;-83
2022/04/21 12:09:28;;;;;;;23.63;20.37;;;;;;;9.93;78.39;98473.70;2164142;82;21000;-84
2022/04/21 12:12:29;;;;;;;29.13;23.37;;;;;;;10.05;78.04;98460.76;2164488;82;20929;-85
2022/04/21 12:15:29;;;;;;;22.83;19.03;;;;;;;10.19;77.44;98466.52;2164171;82;21396;-84
2022/04/21 12:18:30;;;;;;;20.90;18.10;;;;;;;10.18;76.86;98459.55;2164151;82;20983;-84
2022/04/21 12:21:30;;;;;;;21.17;17.47;;;;;;;10.07;76.55;98463.82;2163753;82;21328;-85
2022/04/21 12:24:31;;;;;;;23.47;20.27;;;;;;;9.75;76.95;98459.64;2163784;82;20953;-83
2022/04/21 12:27:34;;;;;;;26.40;22.60;;;;;;;9.58;78.47;98459.48;2164193;82;20961;-83
2022/04/21 12:30:35;;;;;;;22.83;20.43;;;;;;;9.53;79.01;98462.88;2164650;82;20955;-83
2022/04/21 12:33:35;;;;;;;22.10;18.50;;;;;;;9.56;78.89;98459.03;2165576;82;20932;-83
2022/04/21 12:36:36;;;;;;;19.50;16.57;;;;;;;9.67;78.93;98457.40;2163920;82;20992;-85
2022/04/21 12:39:37;;;;;;;21.10;17.57;;;;;;;9.71;77.93;98459.60;2164285;82;21270;-84
2022/04/21 12:42:43;;;;;;;21.40;17.80;;;;;;;9.58;78.57;98460.80;2163480;82;20929;-84
2022/04/21 12:45:43;;;;;;;23.43;18.33;;;;;;;9.48;79.26;98456.31;2164711;82;21007;-83
2022/04/21 12:48:52;;;;;;;18.53;16.47;;;;;;;9.47;79.12;98462.81;2165516;82;20948;-84
2022/04/21 12:51:48;;;;;;;19.60;17.57;;;;;;;9.48;78.65;98462.83;2142201;82;20959;-84
2022/04/21 12:54:48;;;;;;;19.43;17.43;;;;;;;9.55;78.83;98465.97;2143482;82;20925;-84
2022/04/21 12:57:52;;;;;;;23.57;18.40;;;;;;;9.56;78.55;98467.72;2164441;82;20928;-84
2022/04/21 13:00:52;;;;;;;20.93;17.13;;;;;;;9.52;78.75;98465.91;2164491;82;20925;-84
2022/04/21 13:03:52;;;;;;;20.10;17.53;;;;;;;9.50;78.87;98467.63;2163900;82;21381;-83
2022/04/21 13:06:53;;;;;;;19.60;15.97;;;;;;;9.43;79.25;98468.42;2164617;82;21024;-84
2022/04/21 13:09:56;;;;;;;17.00;14.13;;;;;;;9.36;79.05;98476.16;2164814;82;20948;-85
2022/04/21 13:12:57;;;;;;;15.37;13.30;;;;;;;9.29;79.05;98470.01;2165851;82;20929;-83
2022/04/21 13:15:57;;;;;;;16.10;14.00;;;;;;;9.26;78.93;98472.58;2164470;82;20944;-83
2022/04/21 13:18:57;;;;;;;17.07;15.07;;;;;;;9.33;78.93;98473.52;2164641;82;21684;-84
2022/04/21 13:21:58;;;;;;;18.83;15.93;;;;;;;9.36;79.17;98473.12;2165254;82;20921;-83
2022/04/21 13:24:58;;;;;;;17.33;15.33;;;;;;;9.27;79.20;98469.13;2164811;82;20972;-85
2022/04/21 13:27:59;;;;;;;19.07;16.47;;;;;;;9.27;79.63;98475.63;2165159;82;20941;-84
2022/04/21 13:34:18;;;;;;;16.40;14.27;;;;;;;9.47;79.41;98470.20;2164890;82;21316;-84
2022/04/21 13:37:18;;;;;;;18.57;14.73;;;;;;;9.64;79.19;98471.70;2165213;82;20984;-85
2022/04/21 13:40:19;;;;;;;21.20;15.47;;;;;;;9.77;79.15;98468.78;2165673;82;20961;-85
2022/04/21 13:43:19;;;;;;;23.93;18.47;;;;;;;9.85;78.38;98465.81;2165386;82;20909;-86
2022/04/21 13:46:21;;;;;;;19.27;16.40;;;;;;;9.82;77.83;98467.96;2164714;82;22175;-83
2022/04/21 13:49:22;;;;;;;25.23;18.07;;;;;;;9.79;77.51;98469.23;2165754;82;20965;-84
2022/04/21 13:52:22;;;;;;;25.90;17.53;;;;;;;9.80;77.82;98469.68;2165683;82;21356;-83
2022/04/21 13:55:22;;;;;;;23.80;17.23;;;;;;;9.83;77.54;98470.14;2165908;82;20941;-85
2022/04/21 13:58:22;;;;;;;19.57;15.87;;;;;;;9.77;77.17;98469.66;2166115;82;20968;-85
2022/04/21 14:01:28;;;;;;;16.57;14.80;;;;;;;9.76;77.35;98473.12;2144902;82;20965;-84
2022/04/21 14:04:30;;;;;;;19.87;15.00;;;;;;;9.83;77.22;98474.05;2144232;82;20995;-84
2022/04/21 14:07:31;;;;;;;22.53;17.00;;;;;;;9.82;76.90;98478.81;2164754;82;21094;-82
2022/04/21 14:10:34;;;;;;;17.60;14.83;;;;;;;9.72;77.16;98480.47;2164515;82;20985;-83
2022/04/21 14:13:33;;;;;;;25.07;17.43;;;;;;;9.67;76.94;98477.37;2143582;82;20933;-83
2022/04/21 14:16:34;;;;;;;21.90;15.57;;;;;;;9.63;76.96;98483.42;2164556;82;20913;-84
2022/04/21 14:19:34;;;;;;;15.43;13.83;;;;;;;9.59;76.85;98482.52;2165082;82;20968;-84
2022/04/21 14:22:35;;;;;;;16.40;14.63;;;;;;;9.61;77.02;98477.31;2164746;82;20917;-84
2022/04/21 14:25:35;;;;;;;17.57;14.43;;;;;;;9.68;77.15;98481.73;2164471;82;20968;-83
2022/04/21 14:31:38;;;;;;;19.43;15.57;;;;;;;9.83;76.71;98485.34;2162194;82;20948;-84
2022/04/21 14:34:44;;;;;;;20.43;17.10;;;;;;;9.78;76.98;98479.66;2165406;82;20944;-85
2022/04/21 14:44:22;;;;;;;18.70;15.30;;;;;;;9.97;77.09;98488.08;2165639;82;20933;-84
2022/04/21 14:47:23;;;;;;;22.67;16.83;;;;;;;10.00;76.57;98493.75;2165553;82;20936;-85
2022/04/21 14:50:23;;;;;;;22.23;18.17;;;;;;;9.90;76.67;98487.58;2166137;82;20902;-86
2022/04/21 14:53:24;;;;;;;22.90;17.63;;;;;;;9.86;76.96;98488.41;2166705;82;21341;-84
2022/04/21 14:56:24;;;;;;;21.57;18.23;;;;;;;9.85;77.29;98483.63;2165761;82;20929;-84
2022/04/21 14:59:24;;;;;;;28.43;20.57;;;;;;;9.88;76.91;98480.17;2165982;82;20952;-83
2022/04/21 15:02:25;;;;;;;28.07;22.00;;;;;;;9.90;76.99;98477.16;2165894;82;20973;-84
2022/04/21 15:05:25;;;;;;;24.60;20.60;;;;;;;9.90;76.90;98479.33;2166019;82;20988;-85
2022/04/21 15:08:26;;;;;;;22.47;18.37;;;;;;;9.92;76.96;98477.16;2166359;82;20901;-86
2022/04/21 15:11:26;;;;;;;18.97;16.67;;;;;;;9.95;76.84;98473.28;2166475;82;20921;-85
2022/04/21 15:14:26;;;;;;;24.43;18.97;;;;;;;9.88;76.76;98478.44;2165651;82;20932;-77
2022/04/21 15:17:27;;;;;;;16.30;14.60;;;;;;;9.83;76.92;98471.44;2166844;82;20952;-85